Time;durP1;ratioP1;P1;durP2;ratioP2;P2;SDS_P1;SDS_P2;PMS_P1;PMS_P2;Temp;Humidity;BMP_temperature;BMP_pressure;BME280_temperature;BME280_humidity;BME280_pressure;Samples;Min_cycle;Max_cycle;Signal;HPM_P1;HPM_P2
2022/04/09 00:02:06;;;;;;;17.30;2.50;;;;;;;3.85;100.00;100049.47;4973759;28;20041;-83
2022/04/09 00:04:32;;;;;;;20.60;2.40;;;;;;;3.88;100.00;100067.38;5001748;28;20122;-82
2022/04/09 00:06:57;;;;;;;14.02;2.03;;;;;;;3.71;100.00;100049.50;4980430;28;20043;-83
2022/04/09 00:09:23;;;;;;;15.20;2.45;;;;;;;3.78;100.00;100065.22;4980083;28;20046;-83
2022/04/09 00:11:49;;;;;;;14.18;2.65;;;;;;;3.81;100.00;100075.88;4976301;28;20475;-83
2022/04/09 00:14:18;;;;;;;20.67;2.72;;;;;;;3.78;100.00;100077.91;4988973;28;20038;-83
2022/04/09 00:16:43;;;;;;;22.77;2.75;;;;;;;3.66;100.00;100060.63;4980779;28;20030;-83
2022/04/09 00:19:09;;;;;;;11.38;1.63;;;;;;;3.77;100.00;100084.28;4991060;28;20113;-83
2022/04/09 00:21:36;;;;;;;14.35;1.95;;;;;;;3.63;100.00;100072.50;4996464;28;20030;-83
2022/04/09 00:24:01;;;;;;;28.88;2.33;;;;;;;3.75;100.00;100103.31;4985736;28;20034;-82
2022/04/09 00:26:27;;;;;;;18.42;2.10;;;;;;;3.83;100.00;100113.69;4972326;28;20033;-82
2022/04/09 00:28:52;;;;;;;23.17;2.60;;;;;;;3.84;100.00;100118.16;4982428;28;20042;-83
2022/04/09 00:31:18;;;;;;;29.50;2.92;;;;;;;3.72;100.00;100103.50;4972833;28;20031;-82
2022/04/09 00:33:43;;;;;;;20.40;3.28;;;;;;;3.87;100.00;100120.66;4963542;28;20379;-82
2022/04/09 00:36:09;;;;;;;20.65;1.77;;;;;;;3.94;100.00;100132.84;4986504;28;20026;-82
2022/04/09 00:38:35;;;;;;;15.13;2.28;;;;;;;3.90;100.00;100139.41;4960264;28;20074;-82
2022/04/09 00:41:00;;;;;;;13.52;2.75;;;;;;;3.82;100.00;100129.06;4985168;28;20038;-82
2022/04/09 00:43:26;;;;;;;22.33;2.38;;;;;;;3.93;100.00;100144.63;4965728;28;20045;-82
2022/04/09 00:45:51;;;;;;;24.50;2.95;;;;;;;3.92;100.00;100131.19;4976588;28;20034;-82
2022/04/09 00:48:20;;;;;;;18.83;2.25;;;;;;;3.95;100.00;100141.81;4987534;28;20065;-82
2022/04/09 00:50:47;;;;;;;19.63;2.75;;;;;;;3.97;100.00;100151.59;4974135;28;20027;-82
2022/04/09 00:53:15;;;;;;;13.77;2.30;;;;;;;3.81;100.00;100126.47;4975766;28;20030;-81
2022/04/09 00:58:28;;;;;;;19.95;2.50;;;;;;;3.76;100.00;100164.63;5009822;28;20030;-82
2022/04/09 01:00:54;;;;;;;22.98;2.45;;;;;;;3.75;100.00;100159.31;4984142;28;20034;-82
2022/04/09 01:03:21;;;;;;;15.13;2.97;;;;;;;3.75;100.00;100171.00;4988099;28;20046;-82
2022/04/09 01:05:50;;;;;;;24.13;3.42;;;;;;;3.92;100.00;100179.91;5001104;28;20057;-83
2022/04/09 01:08:16;;;;;;;34.50;2.42;;;;;;;3.88;100.00;100175.69;4987641;28;20038;-81
2022/04/09 01:10:45;;;;;;;19.88;2.92;;;;;;;3.77;100.00;100188.06;4986480;28;20022;-83
2022/04/09 01:13:11;;;;;;;25.17;3.35;;;;;;;3.67;100.00;100190.47;4972845;28;20066;-83
2022/04/09 01:15:36;;;;;;;17.45;2.17;;;;;;;3.56;100.00;100189.34;4968531;28;20034;-83
2022/04/09 01:18:02;;;;;;;18.25;2.20;;;;;;;3.59;100.00;100192.75;4976990;28;20034;-83
2022/04/09 01:20:29;;;;;;;18.60;2.33;;;;;;;3.59;100.00;100203.59;5008563;28;20062;-83
2022/04/09 01:22:54;;;;;;;22.63;2.88;;;;;;;3.55;100.00;100204.72;4975668;28;20089;-83
2022/04/09 01:25:20;;;;;;;18.65;2.28;;;;;;;3.38;100.00;100186.81;4970079;28;20023;-83
2022/04/09 01:27:47;;;;;;;18.67;2.35;;;;;;;3.55;100.00;100204.72;5001830;28;20042;-82
2022/04/09 01:30:13;;;;;;;24.77;3.13;;;;;;;3.54;100.00;100212.94;4972083;28;20086;-83
2022/04/09 01:32:39;;;;;;;15.05;2.45;;;;;;;3.22;100.00;100176.03;4974006;28;20062;-83
2022/04/09 01:35:05;;;;;;;25.08;2.70;;;;;;;3.29;100.00;100198.16;4997561;28;20062;-83
2022/04/09 01:37:31;;;;;;;20.10;3.47;;;;;;;3.39;100.00;100218.28;4967662;28;20461;-84
2022/04/09 01:39:57;;;;;;;27.17;3.30;;;;;;;3.37;100.00;100225.63;4964099;28;21780;-83
2022/04/09 01:42:25;;;;;;;13.75;2.80;;;;;;;3.38;100.00;100242.72;4982242;28;20019;-83
2022/04/09 01:44:50;;;;;;;19.83;2.63;;;;;;;3.33;100.00;100237.63;4982176;28;20030;-83
2022/04/09 01:47:17;;;;;;;25.90;2.83;;;;;;;3.34;100.00;100244.75;4967189;28;20047;-83
2022/04/09 01:49:43;;;;;;;18.65;3.22;;;;;;;3.26;100.00;100238.94;4983256;28;20037;-83
2022/04/09 01:52:08;;;;;;;18.20;2.42;;;;;;;3.24;100.00;100227.34;4961741;28;20023;-83
2022/04/09 01:54:34;;;;;;;22.92;3.22;;;;;;;3.31;100.00;100253.06;4978043;28;20034;-83
2022/04/09 01:56:59;;;;;;;20.63;2.53;;;;;;;3.29;100.00;100246.88;4979596;28;20034;-83
2022/04/09 01:59:25;;;;;;;21.48;3.50;;;;;;;3.29;100.00;100260.41;4974890;28;20035;-83
2022/04/09 02:01:51;;;;;;;25.65;3.22;;;;;;;3.31;100.00;100266.56;4985234;28;20026;-83
2022/04/09 02:04:17;;;;;;;19.58;2.95;;;;;;;3.29;100.00;100271.22;4968694;28;20037;-83
2022/04/09 02:06:43;;;;;;;27.23;3.25;;;;;;;3.23;100.00;100258.94;5004193;28;20026;-83
2022/04/09 02:09:12;;;;;;;18.27;2.78;;;;;;;3.28;100.00;100277.56;4989642;28;20039;-83
2022/04/09 02:11:41;;;;;;;18.13;3.15;;;;;;;3.17;100.00;100270.09;4994186;28;20038;-83
2022/04/09 02:14:11;;;;;;;17.42;2.88;;;;;;;3.28;100.00;100283.88;4957517;28;20034;-83
2022/04/09 02:16:38;;;;;;;13.00;2.40;;;;;;;3.30;100.00;100294.63;4957057;28;20062;-83
2022/04/09 02:19:04;;;;;;;21.98;2.40;;;;;;;3.18;100.00;100284.50;4986715;28;20482;-83
2022/04/09 02:21:30;;;;;;;22.38;3.67;;;;;;;3.22;100.00;100297.75;4970766;28;20038;-83
2022/04/09 02:23:56;;;;;;;42.78;3.53;;;;;;;3.24;100.00;100309.34;4976250;28;20042;-83
2022/04/09 02:26:22;;;;;;;24.60;2.65;;;;;;;3.13;100.00;100295.56;4972413;28;20030;-83
2022/04/09 02:28:49;;;;;;;28.38;3.30;;;;;;;3.19;100.00;100302.47;4985945;28;20375;-83
2022/04/09 02:31:17;;;;;;;19.50;3.05;;;;;;;3.25;100.00;100321.06;4970250;28;20030;-84
2022/04/09 02:33:44;;;;;;;34.58;2.78;;;;;;;3.20;100.00;100326.72;4986317;28;20034;-84
2022/04/09 02:36:12;;;;;;;17.52;2.45;;;;;;;3.21;100.00;100317.63;4979801;28;20038;-83
2022/04/09 02:38:40;;;;;;;31.67;3.72;;;;;;;3.14;100.00;100324.38;4970992;28;20042;-83
2022/04/09 02:41:09;;;;;;;20.42;2.90;;;;;;;3.16;100.00;100327.00;4966734;28;20511;-84
2022/04/09 02:43:40;;;;;;;36.05;2.67;;;;;;;3.14;100.00;100332.47;4967763;28;20181;-83
2022/04/09 02:46:05;;;;;;;15.27;3.30;;;;;;;3.09;100.00;100331.88;4962034;28;20039;-83
2022/04/09 02:48:31;;;;;;;26.90;2.83;;;;;;;2.97;100.00;100317.22;4971786;28;20023;-83
2022/04/09 02:50:56;;;;;;;32.78;3.53;;;;;;;3.08;100.00;100332.81;4965429;28;20030;-83
2022/04/09 02:53:21;;;;;;;19.25;2.10;;;;;;;2.94;100.00;100320.97;4967519;28;20040;-83
2022/04/09 02:55:47;;;;;;;23.42;2.78;;;;;;;3.09;100.00;100346.25;4985532;28;20042;-83
2022/04/09 02:58:12;;;;;;;29.88;4.13;;;;;;;3.13;100.00;100346.97;5002528;28;20030;-83
2022/04/09 03:00:39;;;;;;;21.73;2.22;;;;;;;3.05;100.00;100355.53;4966314;28;20027;-83
2022/04/09 03:03:05;;;;;;;21.35;3.55;;;;;;;2.97;100.00;100351.47;4983391;28;20045;-83
2022/04/09 03:05:30;;;;;;;24.98;2.95;;;;;;;3.01;100.00;100364.75;4965075;28;20031;-83
2022/04/09 03:07:57;;;;;;;26.17;2.60;;;;;;;3.02;100.00;100366.50;4964300;28;20059;-83
2022/04/09 03:10:23;;;;;;;20.25;3.40;;;;;;;3.04;100.00;100367.28;4967446;28;20034;-83
2022/04/09 03:12:48;;;;;;;20.40;2.72;;;;;;;3.02;100.00;100358.41;4968023;28;20073;-83
2022/04/09 03:15:14;;;;;;;19.33;2.60;;;;;;;3.24;100.00;100378.81;5003380;28;20034;-83
2022/04/09 03:17:41;;;;;;;23.67;2.33;;;;;;;3.22;100.00;100364.53;4965285;28;20126;-83
2022/04/09 03:20:07;;;;;;;15.13;2.00;;;;;;;3.42;100.00;100387.72;4970272;28;20073;-83
2022/04/09 03:22:32;;;;;;;18.25;2.15;;;;;;;3.41;100.00;100394.97;4999599;28;20030;-83
2022/04/09 03:24:59;;;;;;;17.52;2.28;;;;;;;3.27;100.00;100390.34;4988686;28;20508;-83
2022/04/09 03:27:26;;;;;;;34.63;4.63;;;;;;;3.35;100.00;100406.16;4986772;28;20045;-83
2022/04/09 03:29:52;;;;;;;28.00;2.10;;;;;;;3.22;100.00;100383.47;5002508;28;20038;-83
2022/04/09 03:32:18;;;;;;;17.15;2.13;;;;;;;3.35;100.00;100408.84;5003346;28;20031;-83
2022/04/09 03:34:44;;;;;;;20.20;2.25;;;;;;;3.30;100.00;100405.53;4965761;28;20041;-84
2022/04/09 03:37:10;;;;;;;21.88;2.33;;;;;;;3.26;100.00;100414.78;4973287;28;20031;-83
2022/04/09 03:39:36;;;;;;;22.20;2.10;;;;;;;3.30;100.00;100417.22;4980794;28;20046;-83
2022/04/09 03:42:03;;;;;;;17.35;3.08;;;;;;;3.23;100.00;100420.34;4980096;28;20041;-83
2022/04/09 03:44:29;;;;;;;22.83;2.17;;;;;;;3.25;100.00;100429.28;4979709;28;20034;-83
2022/04/09 03:46:58;;;;;;;16.80;2.53;;;;;;;3.22;100.00;100432.16;4981353;28;21662;-83
2022/04/09 03:49:24;;;;;;;16.00;3.33;;;;;;;3.17;100.00;100429.69;4968810;28;20041;-83
2022/04/09 03:51:50;;;;;;;16.60;1.98;;;;;;;3.16;100.00;100435.19;4970984;28;20443;-83
2022/04/09 03:54:15;;;;;;;12.93;1.95;;;;;;;3.06;100.00;100426.69;4971641;28;20053;-82
2022/04/09 03:56:43;;;;;;;23.65;2.60;;;;;;;3.12;100.00;100437.19;4975861;28;20091;-83
2022/04/09 03:59:09;;;;;;;12.40;1.77;;;;;;;3.08;100.00;100443.72;5000596;28;20390;-83
2022/04/09 04:01:35;;;;;;;15.43;2.28;;;;;;;3.02;100.00;100441.38;4969043;28;20325;-83
2022/04/09 04:04:01;;;;;;;16.35;2.00;;;;;;;2.94;100.00;100444.47;4951810;28;20050;-83
2022/04/09 04:06:26;;;;;;;21.85;2.95;;;;;;;2.92;100.00;100439.16;4994967;28;20066;-83
2022/04/09 04:08:51;;;;;;;30.50;3.60;;;;;;;2.79;100.00;100438.06;4984088;28;20076;-83
2022/04/09 04:11:17;;;;;;;15.15;2.30;;;;;;;2.79;100.00;100437.16;4987254;28;20042;-83
2022/04/09 04:13:43;;;;;;;22.52;3.20;;;;;;;2.82;100.00;100450.53;4981535;28;20033;-83
2022/04/09 04:16:09;;;;;;;17.45;2.42;;;;;;;2.75;100.00;100444.56;4969555;28;20471;-82
2022/04/09 04:18:36;;;;;;;13.40;2.58;;;;;;;2.83;100.00;100455.00;4969700;28;20099;-83
2022/04/09 04:21:02;;;;;;;18.05;2.58;;;;;;;2.76;100.00;100455.31;4955180;28;20094;-83
2022/04/09 04:23:28;;;;;;;19.10;3.13;;;;;;;2.82;100.00;100456.84;4962293;28;20022;-83
2022/04/09 04:25:53;;;;;;;24.92;3.25;;;;;;;2.74;100.00;100459.94;4978652;28;20030;-83
2022/04/09 04:28:19;;;;;;;20.08;3.22;;;;;;;2.76;100.00;100467.97;4970753;28;20034;-83
2022/04/09 04:30:44;;;;;;;17.83;3.03;;;;;;;2.75;100.00;100475.22;4970265;28;20035;-83
2022/04/09 04:33:10;;;;;;;26.88;3.28;;;;;;;2.68;100.00;100481.00;4970595;28;20099;-83
2022/04/09 04:35:37;;;;;;;15.25;2.92;;;;;;;2.70;100.00;100477.25;4988980;28;20026;-83
2022/04/09 04:38:02;;;;;;;15.05;2.88;;;;;;;2.79;100.00;100491.25;4967558;28;20094;-82
2022/04/09 04:40:28;;;;;;;14.98;3.03;;;;;;;2.75;100.00;100495.94;4983562;28;20135;-83
2022/04/09 04:42:54;;;;;;;25.05;3.15;;;;;;;2.68;100.00;100495.38;4972205;28;20425;-82
2022/04/09 04:45:19;;;;;;;29.45;3.45;;;;;;;2.64;100.00;100501.94;4983192;28;20165;-83
2022/04/09 04:47:46;;;;;;;13.48;2.35;;;;;;;2.72;100.00;100513.22;4978316;28;20093;-82
2022/04/09 04:50:13;;;;;;;14.48;2.90;;;;;;;2.64;100.00;100498.31;4965421;29;20020;-83
2022/04/09 04:52:39;;;;;;;25.20;2.70;;;;;;;2.74;100.00;100514.00;4963671;28;20066;-82
2022/04/09 04:55:06;;;;;;;28.95;4.35;;;;;;;2.74;100.00;100514.00;4979669;28;20035;-81
2022/04/09 04:57:52;;;;;;;18.65;2.50;;;;;;;2.78;100.00;100521.94;4966415;28;20010;-82
2022/04/09 05:00:23;;;;;;;25.50;2.97;;;;;;;2.76;100.00;100522.91;4972940;28;20039;-82
2022/04/09 05:02:49;;;;;;;19.80;2.55;;;;;;;2.74;100.00;100513.13;4984521;28;20022;-82
2022/04/09 05:05:15;;;;;;;17.02;3.40;;;;;;;2.85;100.00;100528.78;4986630;28;20031;-82
2022/04/09 05:07:45;;;;;;;20.98;2.47;;;;;;;2.94;100.00;100539.97;4963698;29;20074;-82
2022/04/09 05:10:16;;;;;;;20.50;2.50;;;;;;;2.95;100.00;100538.13;4980867;28;20035;-82
2022/04/09 05:12:42;;;;;;;27.15;2.22;;;;;;;2.86;100.00;100519.72;4981384;28;20054;-82
2022/04/09 05:15:10;;;;;;;11.32;1.90;;;;;;;2.98;100.00;100545.22;4981803;28;20035;-82
2022/04/09 05:17:36;;;;;;;12.60;2.25;;;;;;;2.92;100.00;100555.41;4981006;28;20047;-82
2022/04/09 05:20:03;;;;;;;18.40;2.13;;;;;;;3.04;100.00;100556.59;4966554;28;20111;-82
2022/04/09 05:22:30;;;;;;;22.08;2.25;;;;;;;3.07;100.00;100556.44;4972280;28;20039;-81
2022/04/09 05:24:56;;;;;;;16.40;2.35;;;;;;;3.03;100.00;100548.56;4958169;29;20047;-83
2022/04/09 05:27:23;;;;;;;17.52;5.00;;;;;;;3.10;100.00;100560.81;4969205;28;20022;-83
2022/04/09 05:29:50;;;;;;;25.67;2.95;;;;;;;3.15;100.00;100571.38;4975686;28;20034;-83
2022/04/09 05:32:15;;;;;;;18.58;2.70;;;;;;;3.10;100.00;100555.41;4977996;28;20070;-82
2022/04/09 05:34:41;;;;;;;11.32;2.03;;;;;;;3.25;100.00;100578.06;4962302;28;20046;-82
2022/04/09 05:37:06;;;;;;;17.23;2.05;;;;;;;3.11;100.00;100551.75;4967949;28;20038;-82
2022/04/09 05:39:32;;;;;;;19.10;1.95;;;;;;;3.44;100.00;100583.34;4969314;28;20049;-82
2022/04/09 05:41:57;;;;;;;20.20;2.60;;;;;;;3.43;100.00;100597.84;4970092;28;20062;-82
2022/04/09 05:44:23;;;;;;;19.70;2.63;;;;;;;3.49;100.00;100595.69;4971907;28;20034;-82
2022/04/09 05:46:48;;;;;;;17.88;2.33;;;;;;;3.55;100.00;100605.31;4956070;28;20034;-81
2022/04/09 05:49:14;;;;;;;18.42;3.38;;;;;;;3.49;100.00;100581.25;4964204;28;20038;-81
2022/04/09 05:51:40;;;;;;;9.45;2.17;;;;;;;3.66;100.00;100610.16;4986171;28;20066;-81
2022/04/09 05:54:05;;;;;;;25.77;2.33;;;;;;;3.83;100.00;100607.38;4985884;28;20049;-80
2022/04/09 05:56:31;;;;;;;17.65;1.60;;;;;;;3.97;100.00;100616.59;4965424;28;20043;-83
2022/04/09 05:58:58;;;;;;;18.98;2.00;;;;;;;4.00;100.00;100620.00;4975876;28;20045;-84
2022/04/09 06:01:23;;;;;;;14.70;1.98;;;;;;;3.98;100.00;100624.59;4962570;28;20033;-84
2022/04/09 06:03:49;;;;;;;14.65;2.28;;;;;;;4.02;100.00;100625.34;4970505;28;20034;-83
2022/04/09 06:06:15;;;;;;;17.20;2.20;;;;;;;3.99;100.00;100629.06;4967549;28;20387;-82
2022/04/09 06:08:40;;;;;;;17.33;2.47;;;;;;;4.07;100.00;100635.88;4975354;28;20038;-83
2022/04/09 06:11:06;;;;;;;16.17;2.65;;;;;;;3.96;100.00;100650.91;4984042;28;20118;-83
2022/04/09 06:13:32;;;;;;;10.15;1.88;;;;;;;4.11;100.00;100653.75;4987165;28;20039;-84
2022/04/09 06:15:58;;;;;;;23.95;2.90;;;;;;;4.11;100.00;100627.50;4997982;28;20042;-82
2022/04/09 06:18:23;;;;;;;18.23;2.75;;;;;;;4.30;100.00;100651.75;5009123;28;20085;-83
2022/04/09 06:20:49;;;;;;;20.20;2.20;;;;;;;4.23;100.00;100632.25;4979364;28;20022;-84
2022/04/09 06:23:15;;;;;;;16.10;2.10;;;;;;;4.71;100.00;100661.19;4963966;28;20066;-84
2022/04/09 06:25:40;;;;;;;11.45;2.55;;;;;;;4.84;100.00;100662.22;4966750;28;20042;-83
2022/04/09 06:28:08;;;;;;;30.48;3.28;;;;;;;4.84;100.00;100674.88;4974480;28;20035;-84
2022/04/09 06:30:34;;;;;;;14.88;2.53;;;;;;;4.96;100.00;100680.47;4984743;28;20030;-83
2022/04/09 06:33:00;;;;;;;25.23;2.78;;;;;;;5.00;100.00;100674.88;4970006;28;20018;-84
2022/04/09 06:35:26;;;;;;;14.57;2.42;;;;;;;5.47;100.00;100671.16;4971526;28;20057;-84
2022/04/09 06:37:51;;;;;;;20.50;2.17;;;;;;;5.24;100.00;100680.69;4959753;28;20094;-83
2022/04/09 06:40:17;;;;;;;17.70;2.50;;;;;;;5.18;100.00;100687.34;4972086;28;20035;-82
2022/04/09 06:42:43;;;;;;;26.02;3.05;;;;;;;5.57;100.00;100694.06;4967082;28;20034;-84
2022/04/09 06:45:10;;;;;;;25.88;2.80;;;;;;;5.68;100.00;100679.84;4968504;28;20062;-84
2022/04/09 06:47:37;;;;;;;24.67;2.50;;;;;;;5.86;100.00;100700.44;4960696;28;20038;-83
2022/04/09 06:50:12;;;;;;;22.88;3.20;;;;;;;6.33;100.00;100673.97;4985290;28;20041;-84
2022/04/09 06:52:38;;;;;;;13.27;2.40;;;;;;;6.65;100.00;100710.94;4985129;28;20046;-84
2022/04/09 06:55:04;;;;;;;21.85;2.88;;;;;;;6.60;100.00;100705.78;4981539;28;20046;-84
2022/04/09 06:57:29;;;;;;;13.57;2.55;;;;;;;6.46;100.00;100706.69;4982575;28;20018;-84
2022/04/09 06:59:59;;;;;;;13.60;2.25;;;;;;;6.19;100.00;100714.75;4965734;28;20065;-84
2022/04/09 07:02:25;;;;;;;19.38;2.15;;;;;;;5.91;100.00;100723.75;4976203;28;20109;-84
2022/04/09 07:04:51;;;;;;;23.70;2.83;;;;;;;5.74;100.00;100733.81;4966741;28;20038;-82
2022/04/09 07:07:23;;;;;;;17.00;2.33;;;;;;;5.55;100.00;100739.47;4970901;28;20370;-83
2022/04/09 07:09:50;;;;;;;15.98;2.33;;;;;;;5.43;100.00;100735.66;4994305;28;20010;-83
2022/04/09 07:12:16;;;;;;;19.67;2.00;;;;;;;5.23;100.00;100714.22;4984135;28;20113;-83
2022/04/09 07:14:42;;;;;;;21.45;3.22;;;;;;;5.50;100.00;100747.88;4976164;28;20061;-81
2022/04/09 07:17:07;;;;;;;20.27;2.67;;;;;;;5.46;100.00;100751.75;4981286;28;20038;-81
2022/04/09 07:19:33;;;;;;;19.23;2.60;;;;;;;5.42;100.00;100749.31;4964344;28;20038;-83
2022/04/09 07:21:59;;;;;;;27.38;2.65;;;;;;;5.41;100.00;100759.31;4953103;28;20035;-83
2022/04/09 07:24:24;;;;;;;23.65;2.30;;;;;;;5.40;100.00;100767.53;4975536;28;20050;-84
2022/04/09 07:26:50;;;;;;;12.18;2.13;;;;;;;5.32;100.00;100777.00;4982221;28;20058;-84
2022/04/09 07:29:16;;;;;;;23.00;2.63;;;;;;;5.15;100.00;100780.69;4977693;28;20137;-83
2022/04/09 07:31:41;;;;;;;8.65;1.75;;;;;;;4.96;100.00;100780.00;4985332;28;20053;-83
2022/04/09 07:34:07;;;;;;;9.50;1.35;;;;;;;4.72;100.00;100798.53;4958910;28;20058;-82
2022/04/09 07:36:32;;;;;;;10.05;1.75;;;;;;;4.36;100.00;100807.72;4960251;28;20039;-84
2022/04/09 07:38:58;;;;;;;7.57;1.45;;;;;;;3.97;100.00;100793.53;4961107;28;20047;-82
2022/04/09 07:41:23;;;;;;;1.73;1.00;;;;;;;3.78;100.00;100793.59;4972912;28;20494;-81
2022/04/09 07:43:49;;;;;;;8.60;1.67;;;;;;;3.82;100.00;100807.84;4989329;28;20046;-82
2022/04/09 07:46:14;;;;;;;13.48;1.48;;;;;;;3.91;100.00;100799.25;4960772;28;20066;-82
2022/04/09 07:48:40;;;;;;;6.15;1.17;;;;;;;3.80;100.00;100805.22;4994015;28;20046;-81
2022/04/09 07:51:06;;;;;;;6.43;1.65;;;;;;;3.98;100.00;100795.25;4959533;28;20042;-82
2022/04/09 07:53:32;;;;;;;4.13;1.35;;;;;;;4.51;100.00;100806.00;4988806;28;20041;-82
2022/04/09 07:55:57;;;;;;;8.85;1.17;;;;;;;5.23;100.00;100811.94;4991600;28;20026;-81
2022/04/09 07:58:23;;;;;;;8.38;1.83;;;;;;;5.84;100.00;100804.75;4973311;28;20026;-82
2022/04/09 08:00:49;;;;;;;5.47;1.80;;;;;;;6.54;100.00;100812.25;4969443;28;20039;-82
2022/04/09 08:03:15;;;;;;;11.90;2.30;;;;;;;7.11;100.00;100795.88;4977645;28;20038;-82
2022/04/09 08:05:41;;;;;;;4.95;1.60;;;;;;;7.52;100.00;100810.44;4985154;28;20056;-82
2022/04/09 08:08:08;;;;;;;11.18;2.83;;;;;;;7.54;100.00;100813.94;4959734;28;20402;-82
2022/04/09 08:10:34;;;;;;;11.90;2.45;;;;;;;8.05;100.00;100811.38;4985987;28;20509;-82
2022/04/09 08:12:59;;;;;;;14.85;1.90;;;;;;;8.63;100.00;100816.44;4972649;28;20151;-81
2022/04/09 08:15:25;;;;;;;16.63;2.85;;;;;;;8.98;100.00;100813.00;4990212;28;20125;-82
2022/04/09 08:17:54;;;;;;;10.20;2.03;;;;;;;8.81;100.00;100804.19;4984422;28;20058;-83
2022/04/09 08:20:20;;;;;;;16.17;2.42;;;;;;;8.97;100.00;100820.34;4973094;28;20094;-83
2022/04/09 08:22:46;;;;;;;20.42;2.60;;;;;;;9.48;100.00;100808.38;4967976;28;20035;-83
2022/04/09 08:25:12;;;;;;;13.77;2.72;;;;;;;9.48;100.00;100805.66;4964439;28;20510;-82
2022/04/09 08:27:38;;;;;;;18.58;2.85;;;;;;;9.47;100.00;100813.97;4976511;28;20031;-83
2022/04/09 08:30:06;;;;;;;12.05;2.13;;;;;;;8.67;100.00;100828.00;4976819;28;20062;-83
2022/04/09 08:32:32;;;;;;;17.88;2.42;;;;;;;8.35;100.00;100831.16;4977764;28;20031;-82
2022/04/09 08:34:58;;;;;;;20.90;2.15;;;;;;;8.56;100.00;100826.03;4976482;28;20038;-83
2022/04/09 08:37:24;;;;;;;13.23;2.15;;;;;;;8.96;100.00;100821.31;4979942;28;20055;-82
2022/04/09 08:39:51;;;;;;;19.73;2.55;;;;;;;8.88;100.00;100834.66;4974893;28;20054;-83
2022/04/09 08:42:17;;;;;;;12.48;2.15;;;;;;;8.21;100.00;100838.41;4976513;28;20437;-83
2022/04/09 08:44:43;;;;;;;15.38;2.20;;;;;;;8.12;100.00;100828.19;4973359;28;20026;-83
2022/04/09 08:47:13;;;;;;;14.90;2.08;;;;;;;7.96;100.00;100832.94;4989290;28;20034;-82
2022/04/09 08:49:43;;;;;;;13.40;1.92;;;;;;;8.30;100.00;100820.56;4971550;28;20030;-83
2022/04/09 08:52:08;;;;;;;11.25;2.13;;;;;;;9.66;100.00;100822.53;4977289;28;20035;-82
2022/04/09 08:54:36;;;;;;;12.98;2.00;;;;;;;9.39;100.00;100820.00;4970123;28;20063;-83
2022/04/09 08:57:02;;;;;;;17.73;2.30;;;;;;;9.24;100.00;100819.28;4976262;28;20055;-82
2022/04/09 08:59:28;;;;;;;17.80;1.80;;;;;;;9.54;100.00;100828.91;4975293;28;20586;-83
2022/04/09 09:01:54;;;;;;;11.48;1.63;;;;;;;9.52;100.00;100825.41;4972407;28;20050;-82
2022/04/09 09:04:20;;;;;;;11.45;2.03;;;;;;;9.59;100.00;100813.03;4994359;28;20101;-83
2022/04/09 09:06:46;;;;;;;6.78;1.67;;;;;;;9.35;100.00;100824.81;4983194;28;20050;-82
2022/04/09 09:09:32;;;;;;;14.27;1.60;;;;;;;9.04;100.00;100841.75;4965583;28;20029;-83
2022/04/09 09:12:03;;;;;;;9.00;1.50;;;;;;;8.37;100.00;100846.41;4987798;28;20042;-82
2022/04/09 09:14:34;;;;;;;4.22;1.10;;;;;;;7.31;100.00;100857.22;4980413;28;20031;-82
2022/04/09 09:17:01;;;;;;;7.30;1.23;;;;;;;7.41;100.00;100857.50;4967583;28;20125;-81
2022/04/09 09:19:45;;;;;;;4.72;1.05;;;;;;;7.05;100.00;100858.91;4980011;28;20030;-82
2022/04/09 09:22:11;;;;;;;6.30;0.93;;;;;;;8.07;100.00;100863.06;4960465;28;20038;-83
2022/04/09 09:24:36;;;;;;;8.48;0.80;;;;;;;7.58;100.00;100877.28;4975701;28;20032;-83
2022/04/09 09:27:03;;;;;;;2.85;0.73;;;;;;;6.65;100.00;100885.91;4964542;28;20163;-81
2022/04/09 09:29:30;;;;;;;3.47;0.85;;;;;;;6.09;100.00;100893.84;4994377;28;20030;-82
2022/04/09 09:32:01;;;;;;;6.82;0.80;;;;;;;5.64;100.00;100863.84;4964364;28;20039;-82
2022/04/09 09:34:28;;;;;;;5.10;0.95;;;;;;;5.60;100.00;100891.28;4994538;28;20470;-82
2022/04/09 09:36:54;;;;;;;5.57;0.80;;;;;;;5.48;100.00;100888.31;4973720;28;20109;-83
2022/04/09 09:39:22;;;;;;;5.35;1.08;;;;;;;5.49;100.00;100881.03;4989528;28;20490;-82
2022/04/09 09:41:58;;;;;;;4.03;0.95;;;;;;;5.43;100.00;100881.41;4970231;28;20051;-82
2022/04/09 09:44:25;;;;;;;7.70;1.10;;;;;;;5.65;100.00;100894.59;4982701;28;20467;-82
2022/04/09 09:46:53;;;;;;;4.45;1.13;;;;;;;6.57;100.00;100912.72;4956318;28;20027;-82
2022/04/09 09:49:25;;;;;;;2.35;0.60;;;;;;;6.77;100.00;100903.31;4970444;28;20039;-82
2022/04/09 09:52:06;;;;;;;4.65;0.80;;;;;;;7.58;100.00;100913.56;4987462;28;20030;-82
2022/04/09 09:54:32;;;;;;;3.25;0.52;;;;;;;8.05;100.00;100925.00;4954473;28;20050;-83
2022/04/09 09:56:57;;;;;;;3.72;0.80;;;;;;;7.95;100.00;100923.88;4987974;28;20035;-83
2022/04/09 09:59:23;;;;;;;1.20;0.50;;;;;;;7.25;100.00;100919.38;4954157;28;20031;-83
2022/04/09 10:01:49;;;;;;;2.70;0.43;;;;;;;6.36;100.00;100907.63;4995266;28;20089;-82
2022/04/09 10:04:14;;;;;;;5.63;0.70;;;;;;;6.26;100.00;100881.94;4983075;28;20030;-82
2022/04/09 10:06:42;;;;;;;1.90;0.57;;;;;;;6.55;100.00;100888.31;4983617;28;20034;-80
2022/04/09 10:09:09;;;;;;;0.63;0.40;;;;;;;6.50;100.00;100885.03;4968498;28;20472;-80
2022/04/09 10:11:50;;;;;;;1.42;0.60;;;;;;;6.79;100.00;100891.38;4982536;28;20502;-81
2022/04/09 10:14:21;;;;;;;3.38;0.60;;;;;;;8.01;100.00;100890.75;4987005;28;20034;-80
2022/04/09 10:16:48;;;;;;;4.32;0.63;;;;;;;8.59;100.00;100896.78;4984500;28;20058;-81
2022/04/09 10:19:17;;;;;;;3.80;0.55;;;;;;;9.14;100.00;100889.25;4972589;28;20081;-81
2022/04/09 10:21:46;;;;;;;5.10;0.75;;;;;;;9.72;100.00;100892.25;4970454;28;20027;-82
2022/04/09 10:24:25;;;;;;;4.30;0.70;;;;;;;9.93;100.00;100881.56;4954888;28;20049;-82
2022/04/09 10:26:55;;;;;;;6.80;1.27;;;;;;;10.35;100.00;100882.03;4969998;28;20050;-81
2022/04/09 10:29:24;;;;;;;5.83;1.13;;;;;;;10.48;100.00;100879.19;4979435;28;20037;-82
2022/04/09 10:31:52;;;;;;;5.60;0.93;;;;;;;10.64;100.00;100884.31;4962826;28;20453;-83
2022/04/09 10:34:20;;;;;;;6.40;1.30;;;;;;;10.58;100.00;100885.69;4983093;28;20429;-81
2022/04/09 10:36:45;;;;;;;4.72;1.88;;;;;;;10.93;99.58;100886.63;4992019;28;20066;-83
2022/04/09 10:39:40;;;;;;;6.32;1.00;;;;;;;10.99;97.66;100877.91;4973118;28;20062;-84
2022/04/09 10:42:07;;;;;;;4.63;0.90;;;;;;;10.35;95.32;100873.81;4993806;28;20041;-84
2022/04/09 10:44:35;;;;;;;5.35;0.98;;;;;;;10.75;96.39;100875.25;4953659;28;20039;-85
2022/04/09 10:47:02;;;;;;;5.97;1.00;;;;;;;9.96;94.53;100880.47;4978578;28;20094;-84
2022/04/09 10:49:29;;;;;;;5.13;1.20;;;;;;;9.43;100.00;100891.69;4961868;28;20057;-83
2022/04/09 10:52:14;;;;;;;2.92;0.70;;;;;;;9.14;95.35;100887.38;4975862;28;20107;-83
2022/04/09 10:54:59;;;;;;;5.68;1.20;;;;;;;9.01;93.00;100887.38;4979809;28;20085;-82
2022/04/09 10:57:25;;;;;;;7.85;0.98;;;;;;;10.21;91.67;100893.13;4972113;28;20041;-84
2022/04/09 10:59:58;;;;;;;4.63;0.55;;;;;;;10.64;76.76;100898.91;4967559;28;20027;-85
2022/04/09 11:02:24;;;;;;;;;;;;;;;10.63;74.85;100891.66;4959395;28;20456;-85
2022/04/09 11:04:52;;;;;;;1.45;0.60;;;;;;;10.87;72.87;100898.06;4960539;28;19910;-84
2022/04/09 11:07:24;;;;;;;2.65;0.55;;;;;;;10.98;71.83;100887.13;4961212;28;20026;-85
2022/04/09 11:09:56;;;;;;;4.77;1.50;;;;;;;11.22;74.11;100887.00;4976255;28;20062;-84
2022/04/09 11:12:37;;;;;;;3.28;0.80;;;;;;;11.16;69.99;100891.09;4967122;28;20053;-83
2022/04/09 11:15:05;;;;;;;6.15;0.60;;;;;;;11.36;66.76;100888.59;4969186;28;20545;-83
2022/04/09 11:17:39;;;;;;;2.05;0.60;;;;;;;11.16;66.47;100888.34;4958216;28;20395;-85
2022/04/09 11:20:12;;;;;;;4.30;0.80;;;;;;;10.50;66.23;100888.16;4980704;28;20033;-84
2022/04/09 11:22:40;;;;;;;3.17;0.80;;;;;;;11.03;67.87;100893.97;4964647;28;20042;-84